www.cux-wetter.de
Wetterdaten: Woche 25.10.10 - 31.10.10 (KW43)
Datum Zeit Temp. A. Feuchte A. Luftdruck Regen Wind Richtung Sonnenschein Solar Taupunkt Windchill Windben
25.10.2010 00:00 7,5 C 78 % 1009,6 hPa 0,0 l/m 12,7 km/h (3 Bft) N 0,00 h 0 W/m 3,9 C 3,9 C 12,7 km/h (3 Bft)
25.10.2010 01:00 7,9 C 72 % 1010,5 hPa 0,0 l/m 25,5 km/h (4 Bft) N 0,00 h 0 W/m 3,2 C -1,0 C 25,5 km/h (4 Bft)
25.10.2010 02:00 8,1 C 74 % 1011,1 hPa 0,0 l/m 20,5 km/h (4 Bft) N 0,00 h 0 W/m 3,8 C 0,8 C 20,5 km/h (4 Bft)
25.10.2010 03:00 8,0 C 75 % 1011,5 hPa 0,3 l/m 22,9 km/h (4 Bft) N 0,00 h 0 W/m 3,9 C -0,0 C 22,9 km/h (4 Bft)
25.10.2010 04:00 8,0 C 75 % 1011,9 hPa 0,0 l/m 24,2 km/h (4 Bft) N 0,00 h 0 W/m 3,9 C -0,5 C 24,2 km/h (4 Bft)
25.10.2010 05:00 7,3 C 80 % 1012,5 hPa 0,6 l/m 19,0 km/h (3 Bft) N-NW 0,00 h 0 W/m 4,1 C 0,6 C 19,0 km/h (3 Bft)
25.10.2010 06:00 7,5 C 82 % 1013,2 hPa 0,0 l/m 21,3 km/h (4 Bft) N-NO 0,00 h 0 W/m 4,6 C -0,0 C 21,3 km/h (4 Bft)
25.10.2010 07:00 7,2 C 82 % 1014,2 hPa 0,3 l/m 21,3 km/h (4 Bft) N 0,00 h 0 W/m 4,3 C -0,6 C 21,3 km/h (4 Bft)
25.10.2010 08:00 6,6 C 85 % 1015,7 hPa 0,9 l/m 15,5 km/h (3 Bft) N-NO 0,00 h 0 W/m 4,4 C 1,7 C 15,5 km/h (3 Bft)
25.10.2010 09:00 6,8 C 86 % 1016,6 hPa 0,0 l/m 7,0 km/h (2 Bft) N 0,00 h 0 W/m 4,7 C 5,4 C 7,0 km/h (2 Bft)
25.10.2010 10:00 7,3 C 86 % 1017,5 hPa 0,3 l/m 14,0 km/h (3 Bft) N-NO 0,00 h 0 W/m 5,0 C 2,6 C 14,0 km/h (3 Bft)
25.10.2010 11:00 8,2 C 82 % 1018,2 hPa 0,0 l/m 12,1 km/h (2 Bft) NW 0,00 h 0 W/m 5,2 C 4,5 C 12,1 km/h (2 Bft)
25.10.2010 12:00 9,4 C 77 % 1018,5 hPa 0,0 l/m 14,4 km/h (3 Bft) NW 0,00 h 0 W/m 5,6 C 4,9 C 14,4 km/h (3 Bft)
25.10.2010 13:00 10,0 C 76 % 1018,9 hPa 0,0 l/m 9,7 km/h (2 Bft) W 0,00 h 0 W/m 6,0 C 7,8 C 9,7 km/h (2 Bft)
25.10.2010 14:00 10,8 C 70 % 1018,9 hPa 0,0 l/m 16,0 km/h (3 Bft) NW 0,00 h 0 W/m 5,5 C 6,0 C 16,0 km/h (3 Bft)
25.10.2010 15:00 11,1 C 69 % 1018,6 hPa 0,0 l/m 25,3 km/h (4 Bft) NW 0,00 h 0 W/m 5,5 C 3,4 C 25,3 km/h (4 Bft)
25.10.2010 16:00 10,5 C 70 % 1018,5 hPa 0,0 l/m 30,2 km/h (5 Bft) NW 0,00 h 0 W/m 5,2 C 1,5 C 30,2 km/h (5 Bft)
25.10.2010 17:00 10,1 C 69 % 1018,5 hPa 0,0 l/m 34,5 km/h (5 Bft) NW 0,00 h 0 W/m 4,7 C 0,0 C 34,5 km/h (5 Bft)
25.10.2010 18:00 9,4 C 76 % 1018,5 hPa 1,2 l/m 34,1 km/h (5 Bft) NW 0,00 h 0 W/m 5,5 C -0,8 C 34,1 km/h (5 Bft)
25.10.2010 19:00 8,8 C 82 % 1019,0 hPa 0,3 l/m 33,3 km/h (5 Bft) NW 0,00 h 0 W/m 5,9 C -1,6 C 33,3 km/h (5 Bft)
25.10.2010 20:00 8,3 C 84 % 1019,5 hPa 0,9 l/m 27,7 km/h (5 Bft) N 0,00 h 0 W/m 5,8 C -1,1 C 27,7 km/h (5 Bft)
25.10.2010 21:00 8,5 C 81 % 1019,6 hPa 0,0 l/m 28,6 km/h (5 Bft) N 0,00 h 0 W/m 5,4 C -1,1 C 28,6 km/h (5 Bft)
25.10.2010 22:00 8,6 C 75 % 1020,5 hPa 0,0 l/m 30,7 km/h (5 Bft) N 0,00 h 0 W/m 4,5 C -1,3 C 30,7 km/h (5 Bft)
25.10.2010 23:00 8,5 C 72 % 1020,5 hPa 0,0 l/m 29,0 km/h (5 Bft) N 0,00 h 0 W/m 3,7 C -1,2 C 29,0 km/h (5 Bft)
26.10.2010 00:00 8,7 C 70 % 1020,5 hPa 0,0 l/m 26,6 km/h (4 Bft) N 0,00 h 0 W/m 3,6 C -0,3 C 26,6 km/h (4 Bft)
26.10.2010 01:00 8,6 C 72 % 1020,5 hPa 0,0 l/m 22,9 km/h (4 Bft) N 0,00 h 0 W/m 3,8 C 0,6 C 22,9 km/h (4 Bft)
26.10.2010 02:00 8,8 C 70 % 1021,4 hPa 0,0 l/m 23,5 km/h (4 Bft) N 0,00 h 0 W/m 3,6 C 0,7 C 23,5 km/h (4 Bft)
26.10.2010 03:00 8,7 C 72 % 1021,5 hPa 0,0 l/m 22,1 km/h (4 Bft) N-NO 0,00 h 0 W/m 4,0 C 1,1 C 22,1 km/h (4 Bft)
26.10.2010 04:00 8,3 C 75 % 1021,5 hPa 0,0 l/m 17,6 km/h (3 Bft) N 0,00 h 0 W/m 4,2 C 2,1 C 17,6 km/h (3 Bft)
26.10.2010 05:00 8,3 C 77 % 1022,2 hPa 0,0 l/m 16,6 km/h (3 Bft) N-NO 0,00 h 0 W/m 4,4 C 2,5 C 16,6 km/h (3 Bft)
26.10.2010 06:00 7,5 C 80 % 1022,5 hPa 0,0 l/m 6,5 km/h (2 Bft) N-NO 0,00 h 0 W/m 4,2 C 6,9 C 6,5 km/h (2 Bft)
26.10.2010 07:00 6,9 C 81 % 1023,1 hPa 0,0 l/m 1,9 km/h (1 Bft) N-NO 0,00 h 0 W/m 3,9 C 6,7 C 1,9 km/h (1 Bft)
26.10.2010 08:00 6,4 C 81 % 1023,5 hPa 0,0 l/m 0,8 km/h (0 Bft) N 0,00 h 0 W/m 3,4 C 6,4 C 0,8 km/h (0 Bft)
26.10.2010 09:00 7,2 C 83 % 1023,8 hPa 0,0 l/m 2,7 km/h (1 Bft) S-SW 0,00 h 0 W/m 4,5 C 7,1 C 2,7 km/h (1 Bft)
26.10.2010 10:00 8,1 C 83 % 1024,4 hPa 0,0 l/m 7,1 km/h (2 Bft) S-SW 0,00 h 0 W/m 5,4 C 6,6 C 7,1 km/h (2 Bft)
26.10.2010 11:00 8,8 C 82 % 1024,5 hPa 0,3 l/m 10,8 km/h (2 Bft) W 0,00 h 0 W/m 5,8 C 5,9 C 10,8 km/h (2 Bft)
26.10.2010 12:00 9,6 C 80 % 1024,5 hPa 0,0 l/m 14,9 km/h (3 Bft) W-SW 0,00 h 0 W/m 6,4 C 5,0 C 14,9 km/h (3 Bft)
26.10.2010 13:00 9,7 C 80 % 1024,5 hPa 0,0 l/m 15,6 km/h (3 Bft) W-SW 0,00 h 0 W/m 6,4 C 4,6 C 15,6 km/h (3 Bft)
26.10.2010 14:00 9,6 C 79 % 1024,3 hPa 0,0 l/m 16,5 km/h (3 Bft) W-SW 0,00 h 0 W/m 6,3 C 4,1 C 16,5 km/h (3 Bft)
26.10.2010 15:00 9,6 C 80 % 1023,9 hPa 0,0 l/m 16,1 km/h (3 Bft) W-SW 0,00 h 0 W/m 6,4 C 4,3 C 16,1 km/h (3 Bft)
26.10.2010 16:00 9,3 C 81 % 1023,5 hPa 0,0 l/m 20,3 km/h (4 Bft) W-SW 0,00 h 0 W/m 6,3 C 2,4 C 20,3 km/h (4 Bft)
26.10.2010 17:00 9,0 C 80 % 1023,5 hPa 0,0 l/m 16,8 km/h (3 Bft) W-SW 0,00 h 0 W/m 5,7 C 3,2 C 16,8 km/h (3 Bft)
26.10.2010 18:00 8,7 C 83 % 1023,5 hPa 0,0 l/m 21,4 km/h (4 Bft) W-SW 0,00 h 0 W/m 6,1 C 1,2 C 21,4 km/h (4 Bft)
26.10.2010 19:00 8,6 C 83 % 1023,5 hPa 0,0 l/m 18,1 km/h (3 Bft) W-SW 0,00 h 0 W/m 5,9 C 2,2 C 18,1 km/h (3 Bft)
26.10.2010 20:00 8,5 C 83 % 1022,8 hPa 0,0 l/m 17,1 km/h (3 Bft) W-SW 0,00 h 0 W/m 5,7 C 2,5 C 17,1 km/h (3 Bft)
26.10.2010 21:00 8,4 C 81 % 1022,5 hPa 0,0 l/m 14,9 km/h (3 Bft) W-SW 0,00 h 0 W/m 5,3 C 3,4 C 14,9 km/h (3 Bft)
26.10.2010 22:00 8,2 C 80 % 1022,5 hPa 0,0 l/m 20,1 km/h (4 Bft) W-SW 0,00 h 0 W/m 5,0 C 1,0 C 20,1 km/h (4 Bft)
26.10.2010 23:00 8,2 C 80 % 1021,7 hPa 0,0 l/m 22,6 km/h (4 Bft) W-SW 0,00 h 0 W/m 5,0 C 0,2 C 22,6 km/h (4 Bft)
27.10.2010 00:00 8,3 C 80 % 1021,3 hPa 0,0 l/m 16,0 km/h (3 Bft) SW 0,00 h 0 W/m 5,0 C 2,7 C 16,0 km/h (3 Bft)
27.10.2010 01:00 8,3 C 79 % 1020,5 hPa 0,0 l/m 17,1 km/h (3 Bft) SW 0,00 h 0 W/m 4,9 C 2,3 C 17,1 km/h (3 Bft)
27.10.2010 02:00 8,4 C 77 % 1020,2 hPa 0,0 l/m 18,9 km/h (3 Bft) SW 0,00 h 0 W/m 4,5 C 1,6 C 18,9 km/h (3 Bft)
27.10.2010 03:00 8,4 C 74 % 1019,5 hPa 0,0 l/m 21,1 km/h (4 Bft) SW 0,00 h 0 W/m 4,1 C 0,9 C 21,1 km/h (4 Bft)
27.10.2010 04:00 8,3 C 75 % 1018,6 hPa 0,0 l/m 21,2 km/h (4 Bft) W-SW 0,00 h 0 W/m 4,1 C 0,8 C 21,2 km/h (4 Bft)
27.10.2010 05:00 8,2 C 75 % 1017,8 hPa 0,0 l/m 24,7 km/h (4 Bft) W-SW 0,00 h 0 W/m 4,0 C -0,5 C 24,7 km/h (4 Bft)
27.10.2010 06:00 7,8 C 79 % 1017,3 hPa 0,0 l/m 27,9 km/h (5 Bft) W-SW 0,00 h 0 W/m 4,3 C -1,8 C 27,9 km/h (5 Bft)
27.10.2010 07:00 7,2 C 87 % 1016,5 hPa 0,3 l/m 23,1 km/h (4 Bft) W-SW 0,00 h 0 W/m 5,2 C -1,2 C 23,1 km/h (4 Bft)
27.10.2010 08:00 7,0 C 91 % 1015,6 hPa 1,8 l/m 26,5 km/h (4 Bft) W-SW 0,00 h 0 W/m 5,6 C -2,6 C 26,5 km/h (4 Bft)
27.10.2010 09:00 7,1 C 92 % 1015,5 hPa 0,6 l/m 32,6 km/h (5 Bft) W-SW 0,00 h 0 W/m 5,9 C -4,0 C 32,6 km/h (5 Bft)
27.10.2010 10:00 7,3 C 93 % 1015,5 hPa 0,3 l/m 32,8 km/h (5 Bft) W-SW 0,00 h 0 W/m 6,2 C -3,8 C 32,8 km/h (5 Bft)
27.10.2010 11:00 7,6 C 93 % 1015,5 hPa 0,0 l/m 29,1 km/h (5 Bft) W-SW 0,00 h 0 W/m 6,6 C -2,4 C 29,1 km/h (5 Bft)
27.10.2010 12:00 8,0 C 94 % 1015,5 hPa 0,0 l/m 33,1 km/h (5 Bft) W-SW 0,00 h 0 W/m 7,1 C -2,8 C 33,1 km/h (5 Bft)
27.10.2010 13:00 8,4 C 94 % 1015,5 hPa 0,0 l/m 30,9 km/h (5 Bft) W-SW 0,00 h 0 W/m 7,5 C -1,8 C 30,9 km/h (5 Bft)
27.10.2010 14:00 8,7 C 94 % 1015,0 hPa 0,3 l/m 33,3 km/h (5 Bft) W-SW 0,00 h 0 W/m 7,7 C -1,9 C 33,3 km/h (5 Bft)
27.10.2010 15:00 8,9 C 95 % 1014,5 hPa 0,3 l/m 30,5 km/h (5 Bft) W-SW 0,00 h 0 W/m 8,1 C -1,0 C 30,5 km/h (5 Bft)
27.10.2010 16:00 9,0 C 95 % 1014,5 hPa 0,3 l/m 31,5 km/h (5 Bft) W-SW 0,00 h 0 W/m 8,3 C -1,0 C 31,5 km/h (5 Bft)
27.10.2010 17:00 9,2 C 95 % 1014,5 hPa 0,3 l/m 31,6 km/h (5 Bft) W-SW 0,00 h 0 W/m 8,4 C -0,8 C 31,6 km/h (5 Bft)
27.10.2010 18:00 9,4 C 95 % 1014,5 hPa 0,0 l/m 30,9 km/h (5 Bft) W-SW 0,00 h 0 W/m 8,7 C -0,3 C 30,9 km/h (5 Bft)
27.10.2010 19:00 9,6 C 95 % 1014,5 hPa 0,0 l/m 28,5 km/h (5 Bft) W-SW 0,00 h 0 W/m 8,9 C 0,5 C 28,5 km/h (5 Bft)
27.10.2010 20:00 9,8 C 95 % 1014,5 hPa 0,0 l/m 28,8 km/h (5 Bft) W-SW 0,00 h 0 W/m 9,0 C 0,6 C 28,8 km/h (5 Bft)
27.10.2010 21:00 9,8 C 95 % 1014,5 hPa 0,0 l/m 27,5 km/h (5 Bft) W-SW 0,00 h 0 W/m 9,0 C 1,0 C 27,5 km/h (5 Bft)
27.10.2010 22:00 9,9 C 95 % 1014,5 hPa 0,0 l/m 23,6 km/h (4 Bft) W-SW 0,00 h 0 W/m 9,1 C 2,1 C 23,6 km/h (4 Bft)
27.10.2010 23:00 10,0 C 95 % 1014,5 hPa 0,3 l/m 24,4 km/h (4 Bft) W-SW 0,00 h 0 W/m 9,2 C 2,0 C 24,4 km/h (4 Bft)
28.10.2010 00:00 10,0 C 95 % 1014,5 hPa 0,0 l/m 21,7 km/h (4 Bft) W-SW 0,00 h 0 W/m 9,2 C 2,7 C 21,7 km/h (4 Bft)
28.10.2010 01:00 9,7 C 94 % 1014,3 hPa 0,0 l/m 23,8 km/h (4 Bft) W-SW 0,00 h 0 W/m 8,9 C 1,9 C 23,8 km/h (4 Bft)
28.10.2010 02:00 9,5 C 95 % 1013,5 hPa 0,0 l/m 25,2 km/h (4 Bft) W-SW 0,00 h 0 W/m 8,7 C 1,2 C 25,2 km/h (4 Bft)
28.10.2010 03:00 9,3 C 95 % 1013,3 hPa 0,0 l/m 24,7 km/h (4 Bft) W-SW 0,00 h 0 W/m 8,5 C 1,0 C 24,7 km/h (4 Bft)
28.10.2010 04:00 9,0 C 94 % 1012,5 hPa 0,0 l/m 28,1 km/h (5 Bft) W-SW 0,00 h 0 W/m 8,2 C -0,2 C 28,1 km/h (5 Bft)
28.10.2010 05:00 9,0 C 93 % 1012,5 hPa 0,0 l/m 29,0 km/h (5 Bft) W-SW 0,00 h 0 W/m 8,0 C -0,4 C 29,0 km/h (5 Bft)
28.10.2010 06:00 9,0 C 93 % 1012,5 hPa 0,0 l/m 28,2 km/h (5 Bft) W-SW 0,00 h 0 W/m 7,9 C -0,3 C 28,2 km/h (5 Bft)
28.10.2010 07:00 8,8 C 94 % 1012,5 hPa 0,0 l/m 28,6 km/h (5 Bft) W-SW 0,00 h 0 W/m 7,9 C -0,7 C 28,6 km/h (5 Bft)
28.10.2010 08:00 8,9 C 94 % 1012,5 hPa 0,0 l/m 27,3 km/h (5 Bft) W-SW 0,00 h 0 W/m 8,0 C -0,2 C 27,3 km/h (5 Bft)
28.10.2010 09:00 9,1 C 94 % 1012,5 hPa 0,0 l/m 30,9 km/h (5 Bft) W-SW 0,00 h 0 W/m 8,2 C -0,7 C 30,9 km/h (5 Bft)
28.10.2010 10:00 9,4 C 93 % 1012,4 hPa 0,0 l/m 32,0 km/h (5 Bft) W-SW 0,00 h 0 W/m 8,4 C -0,5 C 32,0 km/h (5 Bft)
28.10.2010 11:00 10,2 C 92 % 1012,5 hPa 0,0 l/m 37,6 km/h (5 Bft) W-SW 0,00 h 0 W/m 8,9 C -0,4 C 37,6 km/h (5 Bft)
28.10.2010 12:00 11,0 C 90 % 1012,5 hPa 0,0 l/m 36,5 km/h (5 Bft) W-SW 0,00 h 0 W/m 9,3 C 0,9 C 36,5 km/h (5 Bft)
28.10.2010 13:00 11,1 C 89 % 1012,5 hPa 0,3 l/m 32,7 km/h (5 Bft) W-SW 0,00 h 0 W/m 9,4 C 1,7 C 32,7 km/h (5 Bft)
28.10.2010 14:00 10,9 C 92 % 1012,5 hPa 0,3 l/m 30,5 km/h (5 Bft) W-SW 0,00 h 0 W/m 9,7 C 1,8 C 30,5 km/h (5 Bft)
28.10.2010 15:00 11,1 C 92 % 1012,5 hPa 0,0 l/m 29,5 km/h (5 Bft) W-SW 0,00 h 0 W/m 9,9 C 2,3 C 29,5 km/h (5 Bft)
28.10.2010 16:00 11,4 C 91 % 1012,5 hPa 0,0 l/m 28,5 km/h (5 Bft) W-SW 0,00 h 0 W/m 10,0 C 3,0 C 28,5 km/h (5 Bft)
28.10.2010 17:00 11,3 C 92 % 1012,5 hPa 0,0 l/m 26,7 km/h (4 Bft) W-SW 0,00 h 0 W/m 10,0 C 3,2 C 26,7 km/h (4 Bft)
28.10.2010 18:00 11,3 C 93 % 1012,9 hPa 0,0 l/m 21,0 km/h (4 Bft) W-SW 0,00 h 0 W/m 10,2 C 4,6 C 21,0 km/h (4 Bft)
28.10.2010 19:00 11,2 C 93 % 1013,5 hPa 0,0 l/m 22,5 km/h (4 Bft) W-SW 0,00 h 0 W/m 10,2 C 4,2 C 22,5 km/h (4 Bft)
28.10.2010 20:00 11,2 C 93 % 1013,5 hPa 0,0 l/m 24,9 km/h (4 Bft) W-SW 0,00 h 0 W/m 10,1 C 3,5 C 24,9 km/h (4 Bft)
28.10.2010 21:00 11,1 C 92 % 1013,5 hPa 0,0 l/m 24,1 km/h (4 Bft) W-SW 0,00 h 0 W/m 9,8 C 3,6 C 24,1 km/h (4 Bft)
28.10.2010 22:00 10,8 C 93 % 1013,5 hPa 0,0 l/m 21,7 km/h (4 Bft) W-SW 0,00 h 0 W/m 9,7 C 3,8 C 21,7 km/h (4 Bft)
28.10.2010 23:00 10,7 C 93 % 1013,5 hPa 0,0 l/m 21,4 km/h (4 Bft) W-SW 0,00 h 0 W/m 9,6 C 3,8 C 21,4 km/h (4 Bft)
29.10.2010 00:00 11,2 C 94 % 1013,5 hPa 0,3 l/m 24,7 km/h (4 Bft) W-SW 0,00 h 0 W/m 10,4 C 3,7 C 24,7 km/h (4 Bft)
29.10.2010 01:00 11,4 C 95 % 1013,4 hPa 0,9 l/m 24,4 km/h (4 Bft) W-SW 0,00 h 0 W/m 10,6 C 3,9 C 24,4 km/h (4 Bft)
29.10.2010 02:00 11,4 C 95 % 1012,5 hPa 0,0 l/m 26,2 km/h (4 Bft) W-SW 0,00 h 0 W/m 10,6 C 3,5 C 26,2 km/h (4 Bft)
29.10.2010 03:00 11,4 C 94 % 1012,5 hPa 0,0 l/m 23,4 km/h (4 Bft) W-SW 0,00 h 0 W/m 10,4 C 4,1 C 23,4 km/h (4 Bft)
29.10.2010 04:00 11,2 C 93 % 1012,4 hPa 0,0 l/m 22,4 km/h (4 Bft) W-SW 0,00 h 0 W/m 10,1 C 4,2 C 22,4 km/h (4 Bft)
29.10.2010 05:00 11,0 C 92 % 1011,6 hPa 0,0 l/m 23,8 km/h (4 Bft) W-SW 0,00 h 0 W/m 9,8 C 3,5 C 23,8 km/h (4 Bft)
29.10.2010 06:00 10,7 C 91 % 1011,5 hPa 0,0 l/m 21,1 km/h (4 Bft) W-SW 0,00 h 0 W/m 9,4 C 3,9 C 21,1 km/h (4 Bft)
29.10.2010 07:00 10,2 C 90 % 1011,5 hPa 0,0 l/m 21,3 km/h (4 Bft) W-SW 0,00 h 0 W/m 8,7 C 3,2 C 21,3 km/h (4 Bft)
29.10.2010 08:00 9,5 C 90 % 1011,5 hPa 0,0 l/m 14,9 km/h (3 Bft) W-SW 0,00 h 0 W/m 7,9 C 4,6 C 14,9 km/h (3 Bft)
29.10.2010 09:00 9,2 C 90 % 1011,4 hPa 0,0 l/m 12,5 km/h (2 Bft) S-SW 0,00 h 0 W/m 7,6 C 5,4 C 12,5 km/h (2 Bft)
29.10.2010 10:00 9,6 C 88 % 1010,5 hPa 0,0 l/m 15,0 km/h (3 Bft) SW 0,00 h 0 W/m 7,7 C 4,7 C 15,0 km/h (3 Bft)
29.10.2010 11:00 10,6 C 84 % 1010,2 hPa 0,0 l/m 15,9 km/h (3 Bft) S-SW 0,00 h 0 W/m 8,0 C 5,6 C 15,9 km/h (3 Bft)
29.10.2010 12:00 11,7 C 81 % 1009,5 hPa 0,0 l/m 17,3 km/h (3 Bft) S-SW 0,00 h 0 W/m 8,5 C 6,3 C 17,3 km/h (3 Bft)
29.10.2010 13:00 12,2 C 78 % 1008,9 hPa 0,0 l/m 14,7 km/h (3 Bft) W-SW 0,00 h 0 W/m 8,5 C 7,9 C 14,7 km/h (3 Bft)
29.10.2010 14:00 12,7 C 76 % 1007,8 hPa 0,0 l/m 16,0 km/h (3 Bft) SW 0,00 h 0 W/m 8,6 C 8,1 C 16,0 km/h (3 Bft)
29.10.2010 15:00 12,1 C 75 % 1006,4 hPa 0,0 l/m 19,1 km/h (3 Bft) S 0,00 h 0 W/m 7,8 C 6,4 C 19,1 km/h (3 Bft)
29.10.2010 16:00 11,2 C 77 % 1005,4 hPa 0,0 l/m 18,3 km/h (3 Bft) S 0,00 h 0 W/m 7,3 C 5,6 C 18,3 km/h (3 Bft)
29.10.2010 17:00 10,3 C 80 % 1004,3 hPa 0,0 l/m 17,2 km/h (3 Bft) S 0,00 h 0 W/m 6,9 C 4,7 C 17,2 km/h (3 Bft)
29.10.2010 18:00 9,8 C 81 % 1003,5 hPa 0,0 l/m 17,3 km/h (3 Bft) S 0,00 h 0 W/m 6,8 C 4,1 C 17,3 km/h (3 Bft)
29.10.2010 19:00 9,6 C 82 % 1002,6 hPa 0,0 l/m 17,6 km/h (3 Bft) S 0,00 h 0 W/m 6,8 C 3,7 C 17,6 km/h (3 Bft)
29.10.2010 20:00 9,8 C 84 % 1001,3 hPa 0,0 l/m 18,9 km/h (3 Bft) S 0,00 h 0 W/m 7,1 C 3,4 C 18,9 km/h (3 Bft)
29.10.2010 21:00 10,2 C 84 % 1000,4 hPa 0,0 l/m 19,6 km/h (3 Bft) S 0,00 h 0 W/m 7,5 C 3,7 C 19,6 km/h (3 Bft)
29.10.2010 22:00 10,7 C 82 % 999,5 hPa 0,0 l/m 20,7 km/h (4 Bft) S 0,00 h 0 W/m 7,8 C 4,0 C 20,7 km/h (4 Bft)
29.10.2010 23:00 11,0 C 80 % 999,5 hPa 0,0 l/m 18,0 km/h (3 Bft) S 0,00 h 0 W/m 7,8 C 5,3 C 18,0 km/h (3 Bft)
30.10.2010 00:00 11,5 C 77 % 998,7 hPa 0,0 l/m 18,0 km/h (3 Bft) S 0,00 h 0 W/m 7,6 C 5,9 C 18,0 km/h (3 Bft)
30.10.2010 01:00 11,5 C 76 % 998,5 hPa 0,0 l/m 18,6 km/h (3 Bft) S-SW 0,00 h 0 W/m 7,4 C 5,8 C 18,6 km/h (3 Bft)
30.10.2010 02:00 11,3 C 75 % 998,1 hPa 0,0 l/m 13,9 km/h (3 Bft) S 0,00 h 0 W/m 7,1 C 7,3 C 13,9 km/h (3 Bft)
30.10.2010 03:00 10,7 C 78 % 997,5 hPa 0,0 l/m 12,0 km/h (2 Bft) S 0,00 h 0 W/m 7,0 C 7,4 C 12,0 km/h (2 Bft)
30.10.2010 04:00 10,4 C 79 % 997,5 hPa 0,0 l/m 10,1 km/h (2 Bft) S 0,00 h 0 W/m 7,0 C 8,1 C 10,1 km/h (2 Bft)
30.10.2010 05:00 10,7 C 79 % 997,5 hPa 0,0 l/m 11,8 km/h (2 Bft) S-SW 0,00 h 0 W/m 7,2 C 7,5 C 11,8 km/h (2 Bft)
30.10.2010 06:00 10,9 C 77 % 997,5 hPa 0,0 l/m 11,9 km/h (2 Bft) S 0,00 h 0 W/m 7,1 C 7,7 C 11,9 km/h (2 Bft)
30.10.2010 07:00 10,8 C 78 % 997,5 hPa 0,0 l/m 13,4 km/h (3 Bft) S-SW 0,00 h 0 W/m 7,1 C 6,9 C 13,4 km/h (3 Bft)
30.10.2010 08:00 10,6 C 79 % 997,8 hPa 0,0 l/m 12,6 km/h (2 Bft) S 0,00 h 0 W/m 7,1 C 7,1 C 12,6 km/h (2 Bft)
30.10.2010 09:00 11,1 C 78 % 998,5 hPa 0,0 l/m 18,6 km/h (3 Bft) W-SW 0,00 h 0 W/m 7,4 C 5,3 C 18,6 km/h (3 Bft)
30.10.2010 10:00 11,9 C 76 % 998,5 hPa 0,0 l/m 19,8 km/h (3 Bft) W-SW 0,00 h 0 W/m 7,8 C 5,9 C 19,8 km/h (3 Bft)
30.10.2010 11:00 12,7 C 74 % 999,1 hPa 0,0 l/m 22,8 km/h (4 Bft) W-SW 0,00 h 0 W/m 8,1 C 6,0 C 22,8 km/h (4 Bft)
30.10.2010 12:00 13,3 C 73 % 999,5 hPa 0,0 l/m 23,0 km/h (4 Bft) W-SW 0,00 h 0 W/m 8,6 C 6,8 C 23,0 km/h (4 Bft)
30.10.2010 13:00 13,7 C 74 % 999,5 hPa 0,0 l/m 22,5 km/h (4 Bft) W-SW 0,00 h 0 W/m 9,0 C 7,4 C 22,5 km/h (4 Bft)
30.10.2010 14:00 13,6 C 76 % 999,5 hPa 0,0 l/m 24,0 km/h (4 Bft) W-SW 0,00 h 0 W/m 9,4 C 6,9 C 24,0 km/h (4 Bft)
30.10.2010 15:00 13,1 C 78 % 999,5 hPa 0,0 l/m 17,5 km/h (3 Bft) W-SW 0,00 h 0 W/m 9,4 C 8,2 C 17,5 km/h (3 Bft)
30.10.2010 16:00 12,5 C 83 % 999,9 hPa 0,6 l/m 11,0 km/h (2 Bft) W-SW 0,00 h 0 W/m 9,7 C 9,9 C 11,0 km/h (2 Bft)
30.10.2010 17:00 11,9 C 87 % 1000,5 hPa 0,0 l/m 13,5 km/h (3 Bft) W-SW 0,00 h 0 W/m 9,9 C 8,1 C 13,5 km/h (3 Bft)
30.10.2010 18:00 11,6 C 89 % 1000,5 hPa 0,3 l/m 10,0 km/h (2 Bft) SW 0,00 h 0 W/m 9,9 C 9,6 C 10,0 km/h (2 Bft)
30.10.2010 19:00 11,6 C 89 % 1001,3 hPa 0,0 l/m 7,8 km/h (2 Bft) S-SW 0,00 h 0 W/m 9,8 C 10,7 C 7,8 km/h (2 Bft)
30.10.2010 20:00 11,5 C 89 % 1001,5 hPa 0,0 l/m 6,8 km/h (2 Bft) SW 0,00 h 0 W/m 9,8 C 10,9 C 6,8 km/h (2 Bft)
30.10.2010 21:00 11,3 C 89 % 1001,5 hPa 0,0 l/m 12,0 km/h (2 Bft) W-SW 0,00 h 0 W/m 9,6 C 8,1 C 12,0 km/h (2 Bft)
30.10.2010 22:00 11,1 C 91 % 1002,5 hPa 0,0 l/m 18,0 km/h (3 Bft) W-SW 0,00 h 0 W/m 9,6 C 5,4 C 18,0 km/h (3 Bft)
30.10.2010 23:00 11,0 C 91 % 1002,5 hPa 0,0 l/m 12,7 km/h (3 Bft) W-SW 0,00 h 0 W/m 9,6 C 7,6 C 12,7 km/h (3 Bft)
31.10.2010 00:00 10,9 C 91 % 1002,5 hPa 0,0 l/m 14,5 km/h (3 Bft) W 0,00 h 0 W/m 9,5 C 6,4 C 14,5 km/h (3 Bft)
31.10.2010 01:00 10,6 C 90 % 1002,5 hPa 0,3 l/m 11,3 km/h (2 Bft) W-SW 0,00 h 0 W/m 9,1 C 7,6 C 11,3 km/h (2 Bft)
31.10.2010 02:00 10,1 C 89 % 1002,5 hPa 0,0 l/m 2,0 km/h (1 Bft) SW 0,00 h 0 W/m 8,3 C 10,1 C 2,0 km/h (1 Bft)
31.10.2010 03:00 8,6 C 88 % 1002,5 hPa 0,0 l/m 3,3 km/h (1 Bft) S-SO 0,00 h 0 W/m 6,7 C 8,6 C 3,3 km/h (1 Bft)
31.10.2010 04:00 8,2 C 89 % 1002,5 hPa 0,0 l/m 1,7 km/h (1 Bft) SO 0,00 h 0 W/m 6,5 C 8,2 C 1,7 km/h (1 Bft)
31.10.2010 05:00 8,1 C 89 % 1002,7 hPa 0,0 l/m 1,8 km/h (1 Bft) S 0,00 h 0 W/m 6,3 C 8,1 C 1,8 km/h (1 Bft)
31.10.2010 06:00 8,7 C 90 % 1003,3 hPa 0,0 l/m 0,3 km/h (0 Bft) N 0,00 h 0 W/m 7,1 C 8,7 C 0,3 km/h (0 Bft)
31.10.2010 07:00 8,5 C 90 % 1003,5 hPa 0,0 l/m 1,2 km/h (1 Bft) S 0,00 h 0 W/m 6,9 C 8,5 C 1,2 km/h (1 Bft)
31.10.2010 08:00 8,3 C 90 % 1003,5 hPa 0,0 l/m 0,0 km/h (0 Bft) N 0,00 h 0 W/m 6,8 C 8,3 C 0,0 km/h (0 Bft)
31.10.2010 09:00 8,9 C 90 % 1003,5 hPa 0,0 l/m 2,6 km/h (1 Bft) SO 0,00 h 0 W/m 7,4 C 8,8 C 2,6 km/h (1 Bft)
31.10.2010 10:00 9,8 C 92 % 1004,0 hPa 0,0 l/m 10,0 km/h (2 Bft) SO 0,00 h 0 W/m 8,5 C 7,6 C 10,0 km/h (2 Bft)
31.10.2010 11:00 10,3 C 92 % 1003,6 hPa 0,0 l/m 12,2 km/h (2 Bft) SO 0,00 h 0 W/m 9,0 C 6,9 C 12,2 km/h (2 Bft)
31.10.2010 12:00 10,5 C 91 % 1004,2 hPa 0,0 l/m 7,4 km/h (2 Bft) O-SO 0,00 h 0 W/m 9,1 C 9,0 C 7,4 km/h (2 Bft)
31.10.2010 13:00 10,7 C 91 % 1003,6 hPa 0,0 l/m 11,1 km/h (2 Bft) SO 0,00 h 0 W/m 9,2 C 7,8 C 11,1 km/h (2 Bft)
31.10.2010 14:00 10,4 C 91 % 1003,5 hPa 0,3 l/m 10,8 km/h (2 Bft) SO 0,00 h 0 W/m 9,1 C 7,7 C 10,8 km/h (2 Bft)
31.10.2010 15:00 10,2 C 92 % 1003,5 hPa 0,6 l/m 8,6 km/h (2 Bft) O-SO 0,00 h 0 W/m 9,0 C 8,5 C 8,6 km/h (2 Bft)
31.10.2010 16:00 10,2 C 93 % 1003,5 hPa 0,3 l/m 12,3 km/h (2 Bft) SO 0,00 h 0 W/m 9,1 C 6,7 C 12,3 km/h (2 Bft)
31.10.2010 17:00 10,1 C 93 % 1003,8 hPa 0,3 l/m 8,8 km/h (2 Bft) SO 0,00 h 0 W/m 9,0 C 8,1 C 8,8 km/h (2 Bft)
31.10.2010 18:00 10,1 C 93 % 1004,8 hPa 0,0 l/m 10,3 km/h (2 Bft) O-SO 0,00 h 0 W/m 9,0 C 7,7 C 10,3 km/h (2 Bft)
31.10.2010 19:00 10,1 C 93 % 1005,5 hPa 0,0 l/m 8,6 km/h (2 Bft) SO 0,00 h 0 W/m 9,0 C 8,5 C 8,6 km/h (2 Bft)
31.10.2010 20:00 10,1 C 94 % 1005,5 hPa 0,0 l/m 6,4 km/h (2 Bft) O 0,00 h 0 W/m 9,2 C 9,3 C 6,4 km/h (2 Bft)
31.10.2010 21:00 10,0 C 94 % 1005,5 hPa 0,0 l/m 7,2 km/h (2 Bft) O 0,00 h 0 W/m 9,1 C 8,9 C 7,2 km/h (2 Bft)
31.10.2010 22:00 10,0 C 94 % 1005,5 hPa 0,0 l/m 7,8 km/h (2 Bft) O-SO 0,00 h 0 W/m 9,0 C 8,5 C 7,8 km/h (2 Bft)
31.10.2010 23:00 9,9 C 94 % 1006,0 hPa 0,0 l/m 8,7 km/h (2 Bft) O-SO 0,00 h 0 W/m 9,0 C 8,2 C 8,7 km/h (2 Bft)
Min-Datum _ 26.10.10 25.10.10 30.10.10 - 26.10.10 - - - 25.10.10 27.10.10 26.10.10
_ Min-Zeit 08:34 15:44 02:34 - 07:29 - - - 01:24 09:59 07:29
Minimum _ 6,2 C 67 % 997,5 hPa - 0,0 km/h (0 Bft) - - - 2,8 C -5,2 C 0,0 km/h (0 Bft)
Max-Datum _ 30.10.10 27.10.10 26.10.10 27.10.10 25.10.10 - 25.10.10 25.10.10 29.10.10 30.10.10 25.10.10
_ Max-Zeit 13:49 15:19 09:49 08:49 18:14 - 00:05 00:05 00:59 18:25 18:14
Maximum _ 13,8 C 95 % 1024,5 hPa 1,8 l/m 45,3 km/h
NW (6 Bft)
- 0,00 h 0 W/m 10,6 C 11,7 C 45,3 km/h
NW (6 Bft)
Durchschnitt _ 9,7 C 85 % 1011,4 hPa #14,1 l/m 19,0 km/h (3 Bft) W-SW #0 min. 0 W/m 7,3 C 3,8 C 19,0 km/h (3 Bft)
copyright by Holger Just